Time;durP1;ratioP1;P1;durP2;ratioP2;P2;SDS_P1;SDS_P2;PMS_P1;PMS_P2;Temp;Humidity;BMP_temperature;BMP_pressure;BME280_temperature;BME280_humidity;BME280_pressure;Samples;Min_cycle;Max_cycle;Signal;HPM_P1;HPM_P2
2021/10/27 00:01:10;;;;;;;;;10.75;8.50;;;;;-142.59;100.00;56100.38;5054809;28;56134;-74
2021/10/27 00:03:35;;;;;;;;;6.00;6.00;;;;;-142.59;100.00;56100.38;5072996;28;70192;-68
2021/10/27 00:06:01;;;;;;;;;5.00;5.00;;;;;-142.59;100.00;56100.38;5073325;28;49673;-73
2021/10/27 00:08:26;;;;;;;;;6.00;6.00;;;;;-142.59;100.00;56100.38;5073628;28;49858;-68
2021/10/27 00:10:51;;;;;;;;;9.50;9.00;;;;;-142.59;100.00;56100.38;5072976;28;59641;-73
2021/10/27 00:13:17;;;;;;;;;6.25;6.25;;;;;-142.59;100.00;56100.38;5055193;28;49711;-66
2021/10/27 00:15:43;;;;;;;;;6.50;6.50;;;;;-142.59;100.00;56100.38;5073295;28;49772;-68
2021/10/27 00:18:08;;;;;;;;;8.50;8.50;;;;;-142.59;100.00;56100.38;5055336;28;49872;-67
2021/10/27 00:20:34;;;;;;;;;9.00;9.00;;;;;-142.59;100.00;56100.38;5072863;28;50300;-73
2021/10/27 00:22:59;;;;;;;;;5.75;5.75;;;;;-142.59;100.00;56100.38;5055098;28;49987;-74
2021/10/27 00:25:24;;;;;;;;;9.25;9.00;;;;;-142.59;100.00;56100.38;5072781;28;65937;-74
2021/10/27 00:27:50;;;;;;;;;6.00;6.00;;;;;-142.59;100.00;56100.38;5072741;28;58198;-73
2021/10/27 00:30:15;;;;;;;;;4.50;4.50;;;;;-142.59;100.00;56100.38;5073267;28;50542;-74
2021/10/27 00:32:41;;;;;;;;;11.00;8.50;;;;;-142.59;100.00;56100.38;5054624;28;52622;-73
2021/10/27 00:35:07;;;;;;;;;4.50;4.50;;;;;-142.59;100.00;56100.38;5071955;28;67801;-69
2021/10/27 00:37:33;;;;;;;;;8.50;8.25;;;;;-142.59;100.00;56100.38;5073037;28;49814;-70
2021/10/27 00:39:58;;;;;;;;;9.25;8.00;;;;;-142.59;100.00;56100.38;5072776;28;49887;-71
2021/10/27 00:42:24;;;;;;;;;15.00;7.75;;;;;-142.59;100.00;56100.38;5073118;28;49710;-70
2021/10/27 00:44:49;;;;;;;;;9.75;8.00;;;;;-142.59;100.00;56100.38;5054199;28;58182;-71
2021/10/27 00:47:16;;;;;;;;;8.75;8.25;;;;;-142.59;100.00;56100.38;5054243;28;59161;-72
2021/10/27 00:49:43;;;;;;;;;7.00;7.00;;;;;-142.59;100.00;56100.38;5037679;28;51900;-73
2021/10/27 00:52:12;;;;;;;;;9.00;6.00;;;;;-142.59;100.00;56100.38;5072708;28;49763;-73
2021/10/27 00:54:42;;;;;;;;;7.75;7.75;;;;;-142.59;100.00;56100.38;5073067;27;49979;-75
2021/10/27 00:57:07;;;;;;;;;11.25;9.50;;;;;-142.59;100.00;56100.38;5072828;28;49779;-69
2021/10/27 00:59:34;;;;;;;;;9.75;8.50;;;;;-142.59;100.00;56100.38;5053984;28;65821;-72
2021/10/27 01:01:59;;;;;;;;;6.50;6.50;;;;;-142.59;100.00;56100.38;5037858;28;49773;-75
2021/10/27 01:04:25;;;;;;;;;12.25;9.00;;;;;-142.59;100.00;56100.38;5072137;28;49803;-74
2021/10/27 01:06:51;;;;;;;;;9.50;9.50;;;;;-142.59;100.00;56100.38;5072672;28;49778;-75
2021/10/27 01:09:17;;;;;;;;;8.00;8.00;;;;;-142.59;100.00;56100.38;5053196;28;73977;-72
2021/10/27 01:11:42;;;;;;;;;11.25;9.50;;;;;-142.59;100.00;56100.38;5072684;27;49958;-73
2021/10/27 01:14:08;;;;;;;;;6.50;6.50;;;;;-142.59;100.00;56100.38;5072034;28;57595;-75
2021/10/27 01:16:34;;;;;;;;;6.00;6.00;;;;;-142.59;100.00;56100.38;5072984;28;50000;-71
2021/10/27 01:18:59;;;;;;;;;8.25;8.25;;;;;-142.59;100.00;56100.38;5071845;28;49950;-76
2021/10/27 01:21:25;;;;;;;;;12.50;9.25;;;;;-142.59;100.00;56100.38;5071537;28;70102;-75
2021/10/27 01:23:51;;;;;;;;;7.00;6.75;;;;;-142.59;100.00;56100.38;5054143;28;49548;-75
2021/10/27 01:26:17;;;;;;;;;10.50;7.50;;;;;-142.59;100.00;56100.38;5072452;28;49803;-71
2021/10/27 01:28:42;;;;;;;;;12.50;11.00;;;;;-142.59;100.00;56100.38;5053452;28;51028;-75
2021/10/27 01:31:08;;;;;;;;;12.25;10.75;;;;;-142.59;100.00;56100.38;5071406;28;70844;-72
2021/10/27 01:33:34;;;;;;;;;10.25;10.25;;;;;-142.59;100.00;56100.38;5037210;28;49780;-75
2021/10/27 01:35:59;;;;;;;;;10.75;10.75;;;;;-142.59;100.00;56100.38;5071557;27;49609;-75
2021/10/27 01:38:24;;;;;;;;;8.25;8.25;;;;;-142.59;100.00;56100.38;5071779;28;50132;-75
2021/10/27 01:40:50;;;;;;;;;9.50;9.00;;;;;-142.59;100.00;56100.38;5071281;27;65874;-74
2021/10/27 01:43:15;;;;;;;;;8.00;8.00;;;;;-142.59;100.00;56100.38;5070872;28;69781;-75
2021/10/27 01:45:41;;;;;;;;;9.00;9.00;;;;;-142.59;100.00;56100.38;5071568;27;61138;-76
2021/10/27 01:48:08;;;;;;;;;9.25;8.00;;;;;-142.59;100.00;56100.38;5071231;28;63319;-75
2021/10/27 01:50:34;;;;;;;;;10.75;10.00;;;;;-142.59;100.00;56100.38;5070767;27;49786;-76
2021/10/27 01:53:00;;;;;;;;;14.75;12.25;;;;;-142.59;100.00;56100.38;5053732;28;49670;-75
2021/10/27 01:55:25;;;;;;;;;8.75;8.00;;;;;-142.59;100.00;56100.38;5053647;28;49694;-69
2021/10/27 01:57:51;;;;;;;;;10.00;10.00;;;;;-142.59;100.00;56100.38;5036686;28;50499;-73
2021/10/27 02:00:17;;;;;;;;;11.75;10.25;;;;;-142.59;100.00;56100.38;5071623;27;49586;-74
2021/10/27 02:02:42;;;;;;;;;11.00;11.00;;;;;-142.59;100.00;56100.38;5071641;28;49557;-75
2021/10/27 02:05:08;;;;;;;;;7.25;6.75;;;;;-142.59;100.00;56100.38;5071459;28;50014;-71
2021/10/27 02:07:33;;;;;;;;;9.25;7.50;;;;;-142.59;100.00;56100.38;5053179;28;49768;-75
2021/10/27 02:09:59;;;;;;;;;10.00;9.75;;;;;-142.59;100.00;56100.38;5071376;28;50603;-75
2021/10/27 02:12:24;;;;;;;;;9.25;9.25;;;;;-142.59;100.00;56100.38;5071062;28;63446;-69
2021/10/27 02:14:49;;;;;;;;;11.75;9.75;;;;;-142.59;100.00;56100.38;5071892;28;49893;-68
2021/10/27 02:17:15;;;;;;;;;11.50;9.50;;;;;-142.59;100.00;56100.38;5070855;27;63268;-71
2021/10/27 02:19:40;;;;;;;;;9.75;9.00;;;;;-142.59;100.00;56100.38;5070481;28;63521;-68
2021/10/27 02:22:05;;;;;;;;;13.75;10.75;;;;;-142.59;100.00;56100.38;5071276;28;50429;-68
2021/10/27 02:24:31;;;;;;;;;8.75;8.75;;;;;-142.59;100.00;56100.38;5053282;28;49887;-68
2021/10/27 02:26:59;;;;;;;;;18.00;12.75;;;;;-142.59;100.00;56100.38;5070974;27;50554;-67
2021/10/27 02:29:25;;;;;;;;;12.00;10.50;;;;;-142.59;100.00;56100.38;5071136;27;49703;-67
2021/10/27 02:31:51;;;;;;;;;9.00;9.00;;;;;-142.59;100.00;56100.38;5071551;28;49866;-68
2021/10/27 02:34:16;;;;;;;;;12.75;8.75;;;;;-142.59;100.00;56100.38;5071041;28;49727;-67
2021/10/27 02:36:42;;;;;;;;;10.75;9.50;;;;;-142.59;100.00;56100.38;5052732;28;50921;-70
2021/10/27 02:39:08;;;;;;;;;7.25;7.25;;;;;-142.59;100.00;56100.38;5051761;28;69241;-67
2021/10/27 02:41:33;;;;;;;;;9.50;9.50;;;;;-142.59;100.00;56100.38;5071002;28;49795;-69
2021/10/27 02:43:59;;;;;;;;;8.00;8.00;;;;;-142.59;100.00;56100.38;5052449;28;55806;-68
2021/10/27 02:46:24;;;;;;;;;10.00;10.00;;;;;-142.59;100.00;56100.38;5052708;28;50354;-68
2021/10/27 02:48:50;;;;;;;;;12.25;10.25;;;;;-142.59;100.00;56100.38;5052233;28;67901;-67
2021/10/27 02:51:16;;;;;;;;;10.00;9.25;;;;;-142.59;100.00;56100.38;5070390;28;56924;-68
2021/10/27 02:53:41;;;;;;;;;11.25;9.50;;;;;-142.59;100.00;56100.38;5053041;28;49782;-67
2021/10/27 02:56:07;;;;;;;;;12.00;10.00;;;;;-142.59;100.00;56100.38;5070936;27;50587;-67
2021/10/27 02:58:32;;;;;;;;;11.00;9.00;;;;;-142.59;100.00;56100.38;5070417;28;54472;-67
2021/10/27 03:00:58;;;;;;;;;8.50;8.50;;;;;-142.59;100.00;56100.38;5068971;28;62682;-70
2021/10/27 03:03:23;;;;;;;;;10.50;8.75;;;;;-142.59;100.00;56100.38;5035598;28;52702;-67
2021/10/27 03:05:48;;;;;;;;;8.00;5.75;;;;;-142.59;100.00;56100.38;5069849;28;63032;-69
2021/10/27 03:08:14;;;;;;;;;9.00;9.00;;;;;-142.59;100.00;56100.38;5051894;28;60867;-71
2021/10/27 03:10:39;;;;;;;;;10.25;8.75;;;;;-142.59;100.00;56100.38;5035014;28;65552;-72
2021/10/27 03:13:05;;;;;;;;;10.00;10.00;;;;;-142.59;100.00;56100.38;5069835;28;65171;-73
2021/10/27 03:15:30;;;;;;;;;8.75;8.75;;;;;-142.59;100.00;56100.38;5070024;28;50372;-68
2021/10/27 03:17:55;;;;;;;;;7.50;5.75;;;;;-142.59;100.00;56100.38;5069946;28;60622;-71
2021/10/27 03:20:21;;;;;;;;;7.75;6.00;;;;;-142.59;100.00;56100.38;5052385;28;49615;-67
2021/10/27 03:22:46;;;;;;;;;8.00;7.75;;;;;-142.59;100.00;56100.38;5070108;28;57544;-70
2021/10/27 03:25:12;;;;;;;;;8.75;8.75;;;;;-142.59;100.00;56100.38;5035098;28;56399;-68
2021/10/27 03:27:37;;;;;;;;;8.00;8.00;;;;;-142.59;100.00;56100.38;5070509;28;49697;-68
2021/10/27 03:30:03;;;;;;;;;7.75;7.75;;;;;-142.59;100.00;56100.38;5070506;27;49866;-68
2021/10/27 03:32:28;;;;;;;;;8.25;8.25;;;;;-142.59;100.00;56100.38;5070456;28;49795;-73
2021/10/27 03:34:54;;;;;;;;;7.00;7.00;;;;;-142.59;100.00;56100.38;5070154;28;50169;-71
2021/10/27 03:37:19;;;;;;;;;9.50;9.00;;;;;-142.59;100.00;56100.38;5034911;28;53323;-70
2021/10/27 03:39:45;;;;;;;;;6.50;6.50;;;;;-142.59;100.00;56100.38;5070120;28;49833;-72
2021/10/27 03:42:10;;;;;;;;;10.75;8.50;;;;;-142.59;100.00;56100.38;5052361;28;49770;-74
2021/10/27 03:44:36;;;;;;;;;11.25;9.50;;;;;-142.59;100.00;56100.38;5035222;28;50323;-70
2021/10/27 03:47:01;;;;;;;;;7.25;7.25;;;;;-142.59;100.00;56100.38;5069466;28;67162;-75
2021/10/27 03:49:27;;;;;;;;;10.75;10.75;;;;;-142.59;100.00;56100.38;5069837;28;49845;-68
2021/10/27 03:51:52;;;;;;;;;9.00;9.00;;;;;-142.59;100.00;56100.38;5070320;28;49690;-74
2021/10/27 03:54:18;;;;;;;;;8.00;8.00;;;;;-142.59;100.00;56100.38;5070028;28;49785;-69
2021/10/27 03:56:43;;;;;;;;;9.00;8.50;;;;;-142.59;100.00;56100.38;5051917;28;49742;-72
2021/10/27 03:59:08;;;;;;;;;9.00;8.75;;;;;-142.59;100.00;56100.38;5069750;27;52515;-76
2021/10/27 04:01:34;;;;;;;;;8.75;7.75;;;;;-142.59;100.00;56100.38;5070427;27;49712;-74
2021/10/27 04:03:59;;;;;;;;;7.50;7.50;;;;;-142.59;100.00;56100.38;5069828;28;50727;-76
2021/10/27 04:06:25;;;;;;;;;11.25;10.25;;;;;-142.59;100.00;56100.38;5050906;28;65358;-67
2021/10/27 04:08:51;;;;;;;;;8.50;8.50;;;;;-142.59;100.00;56100.38;5070110;28;49873;-75
2021/10/27 04:11:16;;;;;;;;;11.50;10.50;;;;;-142.59;100.00;56100.38;5035260;28;49877;-67
2021/10/27 04:13:41;;;;;;;;;8.00;8.00;;;;;-142.59;100.00;56100.38;5054371;28;49805;-67
2021/10/27 04:16:07;;;;;;;;;8.75;8.50;;;;;-142.59;100.00;56100.38;5072865;28;65801;-68
2021/10/27 04:18:32;;;;;;;;;12.50;12.50;;;;;-142.59;100.00;56100.38;5072913;27;52876;-67
2021/10/27 04:20:58;;;;;;;;;9.25;9.00;;;;;-142.59;100.00;56100.38;5054761;28;60689;-67
2021/10/27 04:23:23;;;;;;;;;9.00;9.00;;;;;-142.59;100.00;56100.38;5072581;28;49839;-68
2021/10/27 04:25:49;;;;;;;;;11.25;11.00;;;;;-142.59;100.00;56100.38;5073437;27;49818;-67
2021/10/27 04:28:14;;;;;;;;;10.25;8.50;;;;;-142.59;100.00;56100.38;5072330;28;67664;-68
2021/10/27 04:30:40;;;;;;;;;12.25;10.00;;;;;-142.59;100.00;56100.38;5073243;27;49970;-67
2021/10/27 04:33:25;;;;;;;;;13.75;13.75;;;;;-142.59;100.00;56100.38;5054789;28;50413;-68
2021/10/27 04:35:52;;;;;;;;;8.00;8.00;;;;;-142.59;100.00;56100.38;5071907;27;57783;-69
2021/10/27 04:38:20;;;;;;;;;12.50;10.50;;;;;-142.59;100.00;56100.38;5055077;28;49785;-68
2021/10/27 04:40:45;;;;;;;;;10.50;9.50;;;;;-142.59;100.00;56100.38;5055159;28;49990;-69
2021/10/27 04:43:10;;;;;;;;;10.25;10.25;;;;;-142.59;100.00;56100.38;5053823;28;73059;-67
2021/10/27 04:45:36;;;;;;;;;14.50;10.75;;;;;-142.59;100.00;56100.38;5072778;27;49747;-67
2021/10/27 04:48:01;;;;;;;;;9.25;7.25;;;;;-142.59;100.00;56100.38;5072803;28;50016;-69
2021/10/27 04:50:27;;;;;;;;;13.25;11.25;;;;;-142.59;100.00;56100.38;5072940;28;49835;-67
2021/10/27 04:52:52;;;;;;;;;10.25;8.00;;;;;-142.59;100.00;56100.38;5036997;28;63310;-69
2021/10/27 04:55:17;;;;;;;;;13.50;11.75;;;;;-142.59;100.00;56100.38;5072041;28;67668;-73
2021/10/27 04:57:43;;;;;;;;;9.50;9.50;;;;;-142.59;100.00;56100.38;5053847;28;65905;-73
2021/10/27 05:00:09;;;;;;;;;7.00;7.00;;;;;-142.59;100.00;56100.38;5038322;28;49647;-70
2021/10/27 05:02:34;;;;;;;;;7.00;5.50;;;;;-142.59;100.00;56100.38;5072520;28;50200;-69
2021/10/27 05:05:00;;;;;;;;;9.25;8.75;;;;;-142.59;100.00;56100.38;5054048;28;49824;-70
2021/10/27 05:07:25;;;;;;;;;7.25;7.00;;;;;-142.59;100.00;56100.38;5072429;28;53987;-69
2021/10/27 05:09:51;;;;;;;;;10.00;10.00;;;;;-142.59;100.00;56100.38;5072628;28;49871;-69
2021/10/27 05:12:16;;;;;;;;;9.50;8.00;;;;;-142.59;100.00;56100.38;5054207;28;49831;-69
2021/10/27 05:14:42;;;;;;;;;11.50;9.50;;;;;-142.59;100.00;56100.38;5053935;28;58101;-69
2021/10/27 05:17:11;;;;;;;;;8.50;6.75;;;;;-142.59;100.00;56100.38;5054430;28;49832;-70
2021/10/27 05:19:41;;;;;;;;;10.75;8.50;;;;;-142.59;100.00;56100.38;5054896;28;49810;-69
2021/10/27 05:22:06;;;;;;;;;10.00;9.00;;;;;-142.59;100.00;56100.38;5072343;28;53524;-69
2021/10/27 05:24:32;;;;;;;;;12.00;8.25;;;;;-142.59;100.00;56100.38;5071435;28;50007;-69
2021/10/27 05:26:57;;;;;;;;;8.25;7.25;;;;;-142.59;100.00;56100.38;5072632;27;50048;-68
2021/10/27 05:29:22;;;;;;;;;10.50;8.25;;;;;-142.59;100.00;56100.38;5069930;28;49963;-69
2021/10/27 05:31:48;;;;;;;;;10.50;10.25;;;;;-142.59;100.00;56100.38;5068365;28;72275;-70
2021/10/27 05:34:14;;;;;;;;;10.50;9.00;;;;;-142.59;100.00;56100.38;5047754;28;49958;-69
2021/10/27 05:36:41;;;;;;;;;13.25;11.25;;;;;-142.59;100.00;56100.38;5071886;28;55952;-69
2021/10/27 05:39:06;;;;;;;;;11.75;8.50;;;;;-142.59;100.00;56100.38;5072560;28;49610;-69
2021/10/27 05:41:31;;;;;;;;;10.00;9.00;;;;;-142.59;100.00;56100.38;5053237;28;67609;-70
2021/10/27 05:43:57;;;;;;;;;10.50;10.25;;;;;-142.59;100.00;56100.38;5071936;28;49728;-71
2021/10/27 05:46:23;;;;;;;;;12.25;10.50;;;;;-142.59;100.00;56100.38;5072063;28;49587;-77
2021/10/27 05:48:57;;;;;;;;;9.25;9.00;;;;;-142.59;100.00;56100.38;5072388;28;49815;-74
2021/10/27 05:51:35;;;;;;;;;12.00;9.25;;;;;-142.59;100.00;56100.38;5072090;28;49976;-82
2021/10/27 05:56:45;;;;;;;;;13.25;10.75;;;;;-142.59;100.00;56100.38;5071981;28;49655;-76
2021/10/27 05:59:11;;;;;;;;;13.50;10.00;;;;;-142.59;100.00;56100.38;5071861;28;52452;-72
2021/10/27 06:01:36;;;;;;;;;16.00;11.75;;;;;-142.59;100.00;56100.38;5071679;28;50556;-79
2021/10/27 06:04:01;;;;;;;;;11.75;11.75;;;;;-142.59;100.00;56100.38;5070833;28;68563;-76
2021/10/27 06:06:27;;;;;;;;;10.75;10.75;;;;;-142.59;100.00;56100.38;5070996;28;66384;-78
2021/10/27 06:08:55;;;;;;;;;11.50;10.75;;;;;-142.59;100.00;56100.38;5071739;28;49624;-78
2021/10/27 06:11:20;;;;;;;;;10.00;10.00;;;;;-142.59;100.00;56100.38;5072069;28;49951;-69
2021/10/27 06:13:46;;;;;;;;;14.75;11.00;;;;;-142.59;100.00;56100.38;5071013;28;62995;-70
2021/10/27 06:16:14;;;;;;;;;13.50;9.50;;;;;-142.59;100.00;56100.38;5055334;28;49685;-68
2021/10/27 06:18:40;;;;;;;;;14.00;10.00;;;;;-142.59;100.00;56100.38;5071377;28;49971;-71
2021/10/27 06:21:09;;;;;;;;;11.25;9.75;;;;;-142.59;100.00;56100.38;5053356;28;49879;-69
2021/10/27 06:23:35;;;;;;;;;14.25;14.25;;;;;-142.59;100.00;56100.38;5054012;28;49914;-66
2021/10/27 06:26:02;;;;;;;;;16.75;12.50;;;;;-142.59;100.00;56100.38;5071869;28;49856;-64
2021/10/27 06:28:30;;;;;;;;;12.00;12.00;;;;;-142.59;100.00;56100.38;5081580;28;49748;-72
2021/10/27 06:36:37;;;;;;;;;15.00;14.25;;;;;-142.59;100.00;56100.38;5085202;28;49468;-63
2021/10/27 06:47:08;;;;;;;;;18.50;15.00;;;;;-142.59;100.00;56100.38;5086420;28;49553;-63
2021/10/27 06:49:34;;;;;;;;;18.00;15.50;;;;;-142.59;100.00;56100.38;5087722;28;49688;-65
2021/10/27 06:52:00;;;;;;;;;16.00;16.00;;;;;-142.59;100.00;56100.38;5085641;28;50050;-63
2021/10/27 06:54:25;;;;;;;;;15.75;15.50;;;;;-142.59;100.00;56100.38;5081003;28;49840;-66
2021/10/27 06:56:51;;;;;;;;;18.25;14.75;;;;;-142.59;100.00;56100.38;5079638;28;49593;-65
2021/10/27 07:15:08;;;;;;;;;24.00;17.25;;;;;-142.59;100.00;56100.38;5070677;28;50060;-69
2021/10/27 07:17:34;;;;;;;;;19.00;16.25;;;;;-142.59;100.00;56100.38;5070733;28;49819;-72
2021/10/27 07:20:00;;;;;;;;;17.50;17.50;;;;;-142.59;100.00;56100.38;5070377;28;49904;-71
2021/10/27 07:22:25;;;;;;;;;19.25;19.00;;;;;-142.59;100.00;56100.38;5070385;28;49675;-70
2021/10/27 07:24:51;;;;;;;;;21.50;17.25;;;;;-142.59;100.00;56100.38;5070544;28;49737;-68
2021/10/27 07:27:17;;;;;;;;;13.25;12.25;;;;;-142.59;100.00;56100.38;5071503;28;49639;-66
2021/10/27 07:29:44;;;;;;;;;20.25;18.25;;;;;-142.59;100.00;56100.38;5053009;28;50041;-67
2021/10/27 07:32:11;;;;;;;;;20.75;18.75;;;;;-142.59;100.00;56100.38;5070543;28;49946;-67
2021/10/27 07:34:40;;;;;;;;;16.00;15.00;;;;;-142.59;100.00;56100.38;5051876;28;49580;-77
2021/10/27 07:42:42;;;;;;;;;16.50;15.50;;;;;-142.59;100.00;56100.38;5012416;28;50459;-75
2021/10/27 07:45:08;;;;;;;;;21.25;18.00;;;;;-142.59;100.00;56100.38;5018168;28;49588;-73
2021/10/27 07:47:33;;;;;;;;;18.50;17.75;;;;;-142.59;100.00;56100.38;5048924;28;49753;-74
2021/10/27 07:49:59;;;;;;;;;22.00;21.50;;;;;-142.59;100.00;56100.38;5058174;28;49816;-72
2021/10/27 07:52:24;;;;;;;;;18.50;18.50;;;;;-142.59;100.00;56100.38;5057642;28;51212;-74
2021/10/27 07:54:50;;;;;;;;;21.50;17.75;;;;;-142.59;100.00;56100.38;5039721;28;49711;-74
2021/10/27 07:57:15;;;;;;;;;19.25;15.25;;;;;-142.59;100.00;56100.38;5074504;28;52703;-76
2021/10/27 07:59:41;;;;;;;;;19.00;16.25;;;;;-142.59;100.00;56100.38;5018419;28;50121;-68
2021/10/27 08:02:07;;;;;;;;;17.75;16.50;;;;;-142.59;100.00;56100.38;5052821;28;50724;-77
2021/10/27 08:04:33;;;;;;;;;21.00;17.25;;;;;-142.59;100.00;56100.38;5053068;28;49792;-87
2021/10/27 08:06:59;;;;;;;;;21.50;20.00;;;;;-142.59;100.00;56100.38;5035426;28;49888;-73
2021/10/27 08:09:24;;;;;;;;;25.50;18.75;;;;;-142.59;100.00;56100.38;5053451;28;49716;-69
2021/10/27 08:11:50;;;;;;;;;16.75;16.75;;;;;-142.59;100.00;56100.38;5052132;28;75789;-68
2021/10/27 08:14:15;;;;;;;;;21.00;18.75;;;;;-142.59;100.00;56100.38;5035154;28;50144;-68
2021/10/27 08:16:41;;;;;;;;;18.75;18.75;;;;;-142.59;100.00;56100.38;5052092;28;49969;-72
2021/10/27 08:19:08;;;;;;;;;19.25;16.75;;;;;-142.59;100.00;56100.38;5035193;28;49868;-75
2021/10/27 08:21:33;;;;;;;;;13.75;13.75;;;;;-142.59;100.00;56100.38;5018744;28;51505;-73
2021/10/27 08:23:59;;;;;;;;;31.75;23.00;;;;;-142.59;100.00;56100.38;5053562;28;49606;-71
2021/10/27 08:26:26;;;;;;;;;23.00;20.75;;;;;-142.59;100.00;56100.38;5037377;28;49807;-68
2021/10/27 08:28:56;;;;;;;;;18.00;16.25;;;;;-142.59;100.00;56100.38;5057001;28;50033;-69
2021/10/27 08:36:19;;;;;;;;;17.25;16.50;;;;;-142.59;100.00;56100.38;5084399;28;49851;-70
2021/10/27 08:38:45;;;;;;;;;22.50;21.50;;;;;-142.59;100.00;56100.38;5079304;28;49609;-70
2021/10/27 08:41:12;;;;;;;;;22.00;19.50;;;;;-142.59;100.00;56100.38;5073299;28;50994;-69
2021/10/27 08:43:37;;;;;;;;;18.50;16.50;;;;;-142.59;100.00;56100.38;5073141;28;49754;-81
2021/10/27 08:46:03;;;;;;;;;17.00;16.25;;;;;-142.59;100.00;56100.38;5072927;28;50241;-76
2021/10/27 08:48:32;;;;;;;;;24.00;19.25;;;;;-142.59;100.00;56100.38;5036584;28;49811;-71
2021/10/27 08:50:58;;;;;;;;;21.75;19.00;;;;;-142.59;100.00;56100.38;5070287;28;49620;-70
2021/10/27 08:53:24;;;;;;;;;17.25;16.00;;;;;-142.59;100.00;56100.38;5058275;28;49819;-71
2021/10/27 08:55:51;;;;;;;;;16.50;12.25;;;;;-142.59;100.00;56100.38;5070673;28;49672;-70
2021/10/27 08:58:30;;;;;;;;;18.25;16.50;;;;;-142.59;100.00;56100.38;5084383;28;49567;-73
2021/10/27 09:04:22;;;;;;;;;23.50;19.00;;;;;-142.59;100.00;56100.38;5072225;28;50023;-75
2021/10/27 09:07:30;;;;;;;;;18.50;15.00;;;;;-142.59;100.00;56100.38;5077454;28;49916;-72
2021/10/27 10:04:01;;;;;;;;;18.00;14.00;;;;;-142.59;100.00;56100.38;5087035;28;49815;-72
2021/10/27 10:05:15;;;;;;;;;16.25;16.25;;;;;-142.59;100.00;56100.38;5087329;28;49279;-78
2021/10/27 10:07:41;;;;;;;;;18.00;15.75;;;;;-142.59;100.00;56100.38;5060326;28;51201;-70
2021/10/27 10:10:08;;;;;;;;;14.00;14.00;;;;;-142.59;100.00;56100.38;5087373;28;49692;-67
2021/10/27 10:12:38;;;;;;;;;12.25;11.25;;;;;-142.59;100.00;56100.38;5088307;28;49379;-75
2021/10/27 10:15:04;;;;;;;;;21.50;20.00;;;;;-142.59;100.00;56100.38;5084564;28;49542;-75
2021/10/27 10:17:34;;;;;;;;;22.50;15.25;;;;;-142.59;100.00;56100.38;5071142;28;50776;-76
2021/10/27 10:20:00;;;;;;;;;20.50;18.00;;;;;-142.59;100.00;56100.38;5086678;28;49510;-75
2021/10/27 10:22:34;;;;;;;;;17.75;15.25;;;;;-142.59;100.00;56100.38;5070082;28;49346;-75
2021/10/27 10:25:15;;;;;;;;;13.75;13.00;;;;;-142.59;100.00;56100.38;5070438;28;49735;-74
2021/10/27 10:27:48;;;;;;;;;18.00;15.75;;;;;-142.59;100.00;56100.38;5084718;28;49839;-73
2021/10/27 10:30:37;;;;;;;;;13.25;13.25;;;;;-142.59;100.00;56100.38;5075035;28;49784;-72
2021/10/27 10:33:07;;;;;;;;;15.00;13.75;;;;;-142.59;100.00;56100.38;5070593;28;49899;-69
2021/10/27 10:35:57;;;;;;;;;15.25;14.75;;;;;-142.59;100.00;56100.38;5069387;28;49649;-70
2021/10/27 10:44:34;;;;;;;;;17.00;14.75;;;;;-142.59;100.00;56100.38;5049800;28;49781;-71
2021/10/27 11:25:27;;;;;;;;;26.00;18.75;;;;;-142.59;100.00;56100.38;5073592;28;49787;-76
2021/10/27 11:41:59;;;;;;;;;15.00;14.50;;;;;-142.59;100.00;56100.38;5073714;28;50265;-71
2021/10/27 11:44:42;;;;;;;;;19.00;17.75;;;;;-142.59;100.00;56100.38;5074323;28;49981;-72
2021/10/27 11:47:08;;;;;;;;;18.75;16.75;;;;;-142.59;100.00;56100.38;5073561;28;50362;-72
2021/10/27 11:49:37;;;;;;;;;24.00;22.00;;;;;-142.59;100.00;56100.38;5072599;28;49696;-71
2021/10/27 11:52:03;;;;;;;;;22.50;20.75;;;;;-142.59;100.00;56100.38;5054277;28;49896;-74
2021/10/27 11:54:30;;;;;;;;;23.00;20.75;;;;;-142.59;100.00;56100.38;5073466;28;49850;-74
2021/10/27 11:56:56;;;;;;;;;23.00;21.50;;;;;-142.59;100.00;56100.38;5073343;28;50372;-71
2021/10/27 11:59:22;;;;;;;;;23.00;21.75;;;;;-142.59;100.00;56100.38;5073149;28;49693;-73
2021/10/27 12:01:51;;;;;;;;;19.00;17.50;;;;;-142.59;100.00;56100.38;5072959;28;49827;-73
2021/10/27 12:04:18;;;;;;;;;14.50;14.50;;;;;-142.59;100.00;56100.38;5055168;28;50343;-72
2021/10/27 12:07:04;;;;;;;;;17.25;15.25;;;;;-142.59;100.00;56100.38;5038593;28;50945;-77
2021/10/27 12:09:44;;;;;;;;;18.25;17.00;;;;;-142.59;100.00;56100.38;5052986;28;49807;-72
2021/10/27 12:20:41;;;;;;;;;18.25;16.00;;;;;-142.59;100.00;56100.38;5036946;28;50117;-77
2021/10/27 12:23:16;;;;;;;;;15.25;15.25;;;;;-142.59;100.00;56100.38;5037660;28;50115;-74
2021/10/27 12:25:42;;;;;;;;;15.75;14.50;;;;;-142.59;100.00;56100.38;5054708;28;50052;-75
2021/10/27 12:28:24;;;;;;;;;14.75;13.00;;;;;-142.59;100.00;56100.38;5071492;28;50004;-76
2021/10/27 12:30:50;;;;;;;;;15.75;15.50;;;;;-142.59;100.00;56100.38;5072925;28;49933;-74
2021/10/27 12:33:15;;;;;;;;;15.25;14.25;;;;;-142.59;100.00;56100.38;5056300;28;49733;-74
2021/10/27 12:35:41;;;;;;;;;16.00;16.00;;;;;-142.59;100.00;56100.38;5054911;28;50383;-73
2021/10/27 12:38:20;;;;;;;;;14.00;12.25;;;;;-142.59;100.00;56100.38;5071985;28;70810;-73
2021/10/27 12:40:47;;;;;;;;;11.00;11.00;;;;;-142.59;100.00;56100.38;5074042;28;49683;-71
2021/10/27 12:43:15;;;;;;;;;14.00;14.00;;;;;-142.59;100.00;56100.38;5072760;28;49799;-70
2021/10/27 12:45:48;;;;;;;;;11.50;11.50;;;;;-142.59;100.00;56100.38;5069839;28;49831;-70
2021/10/27 12:48:17;;;;;;;;;15.00;15.00;;;;;-142.59;100.00;56100.38;5070335;28;50825;-71
2021/10/27 12:50:55;;;;;;;;;14.75;12.50;;;;;-142.59;100.00;56100.38;5070605;28;49697;-72
2021/10/27 12:53:37;;;;;;;;;17.50;14.25;;;;;-142.59;100.00;56100.38;5052869;28;50142;-72
2021/10/27 12:56:17;;;;;;;;;15.25;14.50;;;;;-142.59;100.00;56100.38;5034385;28;49733;-69
2021/10/27 12:58:54;;;;;;;;;13.50;13.00;;;;;-142.59;100.00;56100.38;5053814;28;52675;-73
2021/10/27 13:10:07;;;;;;;;;12.00;12.00;;;;;-142.59;100.00;56100.38;5074448;28;50317;-67
2021/10/27 13:15:20;;;;;;;;;11.75;11.75;;;;;-142.59;100.00;56100.38;5038394;28;49761;-67
2021/10/27 13:18:07;;;;;;;;;11.50;9.50;;;;;-142.59;100.00;56100.38;5073836;28;50031;-68
2021/10/27 13:23:24;;;;;;;;;13.00;10.75;;;;;-142.59;100.00;56100.38;5054567;28;49926;-66
2021/10/27 13:31:21;;;;;;;;;10.75;10.75;;;;;-142.59;100.00;56100.38;5072108;28;49668;-66
2021/10/27 13:33:46;;;;;;;;;9.75;9.75;;;;;-142.59;100.00;56100.38;5071723;28;49747;-71
2021/10/27 13:36:12;;;;;;;;;12.25;11.00;;;;;-142.59;100.00;56100.38;5021092;28;49782;-78
2021/10/27 13:38:37;;;;;;;;;13.75;13.00;;;;;-142.59;100.00;56100.38;5037272;28;49984;-67
2021/10/27 13:41:05;;;;;;;;;11.75;9.25;;;;;-142.59;100.00;56100.38;5071937;28;50392;-72
2021/10/27 13:44:10;;;;;;;;;13.75;12.00;;;;;-142.59;100.00;56100.38;5071943;28;49816;-72
2021/10/27 14:07:44;;;;;;;;;18.50;16.00;;;;;-142.59;100.00;56100.38;5071477;28;49673;-72
2021/10/27 14:10:26;;;;;;;;;18.25;18.25;;;;;-142.59;100.00;56100.38;5054109;28;49845;-68
2021/10/27 14:12:56;;;;;;;;;16.00;16.00;;;;;-142.59;100.00;56100.38;5053150;28;51640;-69
2021/10/27 14:15:51;;;;;;;;;17.50;17.25;;;;;-142.59;100.00;56100.38;5054081;28;50250;-71
2021/10/27 14:38:59;;;;;;;;;14.25;13.75;;;;;-142.59;100.00;56100.38;5072077;28;50201;-68
2021/10/27 14:58:46;;;;;;;;;12.75;11.25;;;;;-142.59;100.00;56100.38;5020786;28;49770;-72
2021/10/27 15:21:20;;;;;;;;;7.50;7.50;;;;;-142.59;100.00;56100.38;5047165;28;49694;-71
2021/10/27 15:23:56;;;;;;;;;10.00;9.75;;;;;-142.59;100.00;56100.38;5078014;28;49450;-73
2021/10/27 15:27:44;;;;;;;;;8.75;7.75;;;;;-142.59;100.00;56100.38;5074694;28;49798;-72